Ami — C6AD2 — position and weather

sailwx.info

Track history (hours):
 
Tides and Currents Weather Stations Pressure Air Temp Water Temp Dewpoint Dewpoint Depression Visibility Wind Speed Wind Dir Waves Ship Positions

Ami

Last reported at 2017-Dec-15 16:11 UTC. Time now 2017-Dec-15 19:59 UTC.
Position N 44°05' E 014°18'.

Length 183 m; draft 10.3 m.

Type: Tanker. MMSI: 311076200.

Date/timePositionNaut miles runAvg speedWind from/ knotsBaromVisibWave heightAir tempDewpointWater temp
2017-Dec-15 16:11N 44°05' E 014°18'1 6.8
2017-Dec-15 16:00N 44°06' E 014°17'511.2
2017-Dec-15 15:30N 44°11' E 014°14'612.1
2017-Dec-15 15:00N 44°17' E 014°10'612.4
2017-Dec-15 14:30N 44°22' E 014°06'612.4
2017-Dec-15 14:00N 44°28' E 014°02'511.1
2017-Dec-15 13:30N 44°33' E 014°02'712.7
2017-Dec-15 12:59N 44°40' E 014°04'612.7
2017-Dec-15 12:30N 44°45' E 014°06'712.8
2017-Dec-15 11:56N 44°52' E 014°11'912.1
2017-Dec-15 11:11N 45°01' E 014°14'312.4
2017-Dec-15 10:55N 45°04' E 014°13'512.0
2017-Dec-15 10:30N 45°09' E 014°15'5 9.3
2017-Dec-15 09:59N 45°13' E 014°20'2 4.2
2017-Dec-15 09:30N 45°13' E 014°22'3 5.2
2017-Dec-15 09:00N 45°14' E 014°26'5 9.4
2017-Dec-15 08:25N 45°16' E 014°33'  
2017-Dec-13 01:37N 45°17' E 014°34'1 6.0
2017-Dec-13 01:29N 45°16' E 014°33'4 8.5
2017-Dec-13 01:00N 45°15' E 014°28'5 9.1
2017-Dec-13 00:29N 45°13' E 014°22'4 7.3
2017-Dec-13 00:00N 45°11' E 014°17'5 9.3
2017-Dec-12 23:26N 45°06' E 014°15'3 6.9
2017-Dec-12 23:00N 45°03' E 014°14'610.6
2017-Dec-12 22:26N 44°57' E 014°14'714.3
2017-Dec-12 21:56N 44°50' E 014°09'614.1
2017-Dec-12 21:30N 44°45' E 014°06'714.1
2017-Dec-12 21:00N 44°38' E 014°04'714.3
2017-Dec-12 20:30N 44°31' E 014°02'713.4
2017-Dec-12 20:01N 44°25' E 014°05'713.9
2017-Dec-12 19:30N 44°19' E 014°10'713.8
2017-Dec-12 19:00N 44°13' E 014°14'  
2017-Dec-10 05:32N 36°14' E 014°51'112.7
2017-Dec-10 05:29N 36°14' E 014°50'612.4
2017-Dec-10 05:00N 36°13' E 014°43'612.1
2017-Dec-10 04:30N 36°14' E 014°35'612.0
2017-Dec-10 04:00N 36°14' E 014°28'612.2
2017-Dec-10 03:30N 36°16' E 014°20'612.1
2017-Dec-10 03:00N 36°17' E 014°13'612.2
2017-Dec-10 02:30N 36°19' E 014°06'611.9
2017-Dec-10 02:00N 36°21' E 013°59'612.0
2017-Dec-10 01:30N 36°22' E 013°52'612.1
2017-Dec-10 01:00N 36°24' E 013°44'  
Track history (hours):
 
Tides and Currents Weather Stations Pressure Air Temp Water Temp Dewpoint Dewpoint Depression Visibility Wind Speed Wind Dir Waves Ship Positions

Ami

Last reported at 2017-Dec-15 16:11 UTC. Time now 2017-Dec-15 19:59 UTC.
Position N 44°05' E 014°18'.

Length 183 m; draft 10.3 m.

Type: Tanker. MMSI: 311076200.

Date/timePositionNaut miles runAvg speedWind from/ knotsBaromVisibWave heightAir tempDewpointWater temp
2017-Dec-15 16:11N 44°05' E 014°18'1 6.8
2017-Dec-15 16:00N 44°06' E 014°17'511.2
2017-Dec-15 15:30N 44°11' E 014°14'612.1
2017-Dec-15 15:00N 44°17' E 014°10'612.4
2017-Dec-15 14:30N 44°22' E 014°06'612.4
2017-Dec-15 14:00N 44°28' E 014°02'511.1
2017-Dec-15 13:30N 44°33' E 014°02'712.7
2017-Dec-15 12:59N 44°40' E 014°04'612.7
2017-Dec-15 12:30N 44°45' E 014°06'712.8
2017-Dec-15 11:56N 44°52' E 014°11'912.1
2017-Dec-15 11:11N 45°01' E 014°14'312.4
2017-Dec-15 10:55N 45°04' E 014°13'512.0
2017-Dec-15 10:30N 45°09' E 014°15'5 9.3
2017-Dec-15 09:59N 45°13' E 014°20'2 4.2
2017-Dec-15 09:30N 45°13' E 014°22'3 5.2
2017-Dec-15 09:00N 45°14' E 014°26'5 9.4
2017-Dec-15 08:25N 45°16' E 014°33'  
2017-Dec-13 01:37N 45°17' E 014°34'1 6.0
2017-Dec-13 01:29N 45°16' E 014°33'4 8.5
2017-Dec-13 01:00N 45°15' E 014°28'5 9.1
2017-Dec-13 00:29N 45°13' E 014°22'4 7.3
2017-Dec-13 00:00N 45°11' E 014°17'5 9.3
2017-Dec-12 23:26N 45°06' E 014°15'3 6.9
2017-Dec-12 23:00N 45°03' E 014°14'610.6
2017-Dec-12 22:26N 44°57' E 014°14'714.3
2017-Dec-12 21:56N 44°50' E 014°09'614.1
2017-Dec-12 21:30N 44°45' E 014°06'714.1
2017-Dec-12 21:00N 44°38' E 014°04'714.3
2017-Dec-12 20:30N 44°31' E 014°02'713.4
2017-Dec-12 20:01N 44°25' E 014°05'713.9
2017-Dec-12 19:30N 44°19' E 014°10'713.8
2017-Dec-12 19:00N 44°13' E 014°14'  
2017-Dec-10 05:32N 36°14' E 014°51'112.7
2017-Dec-10 05:29N 36°14' E 014°50'612.4
2017-Dec-10 05:00N 36°13' E 014°43'612.1
2017-Dec-10 04:30N 36°14' E 014°35'612.0
2017-Dec-10 04:00N 36°14' E 014°28'612.2
2017-Dec-10 03:30N 36°16' E 014°20'612.1
2017-Dec-10 03:00N 36°17' E 014°13'612.2
2017-Dec-10 02:30N 36°19' E 014°06'611.9
2017-Dec-10 02:00N 36°21' E 013°59'612.0
2017-Dec-10 01:30N 36°22' E 013°52'612.1
2017-Dec-10 01:00N 36°24' E 013°44'  

Dump ship's entire track history